sensor_id;sensor_type;location;lat;lon;timestamp;temperature;humidity
5705;DHT22;2877;48.238;11.160;2022-09-09T00:01:46;12.10;99.90
5705;DHT22;2877;48.238;11.160;2022-09-09T00:04:34;12.10;99.90
5705;DHT22;2877;48.238;11.160;2022-09-09T00:07:24;12.00;99.90
5705;DHT22;2877;48.238;11.160;2022-09-09T00:10:28;12.00;99.90
5705;DHT22;2877;48.238;11.160;2022-09-09T00:13:18;12.10;99.90
5705;DHT22;2877;48.238;11.160;2022-09-09T00:21:37;12.20;99.90
5705;DHT22;2877;48.238;11.160;2022-09-09T00:30:15;12.00;99.90
5705;DHT22;2877;48.238;11.160;2022-09-09T00:32:47;12.00;99.90
5705;DHT22;2877;48.238;11.160;2022-09-09T00:37:45;12.00;99.90
5705;DHT22;2877;48.238;11.160;2022-09-09T00:40:34;12.00;99.90
5705;DHT22;2877;48.238;11.160;2022-09-09T00:49:02;12.00;99.90
5705;DHT22;2877;48.238;11.160;2022-09-09T00:51:41;12.00;99.90
5705;DHT22;2877;48.238;11.160;2022-09-09T00:57:34;12.00;99.90
5705;DHT22;2877;48.238;11.160;2022-09-09T01:11:25;12.10;99.90
5705;DHT22;2877;48.238;11.160;2022-09-09T01:14:13;12.00;99.90
5705;DHT22;2877;48.238;11.160;2022-09-09T01:16:43;11.90;99.90
5705;DHT22;2877;48.238;11.160;2022-09-09T01:19:18;12.00;99.90
5705;DHT22;2877;48.238;11.160;2022-09-09T01:24:38;12.00;99.90
5705;DHT22;2877;48.238;11.160;2022-09-09T01:27:06;12.00;99.90
5705;DHT22;2877;48.238;11.160;2022-09-09T01:29:33;12.00;99.90
5705;DHT22;2877;48.238;11.160;2022-09-09T01:32:37;12.00;99.90
5705;DHT22;2877;48.238;11.160;2022-09-09T01:34:50;12.00;99.90
5705;DHT22;2877;48.238;11.160;2022-09-09T01:37:16;12.10;99.90
5705;DHT22;2877;48.238;11.160;2022-09-09T01:39:43;12.10;99.90
5705;DHT22;2877;48.238;11.160;2022-09-09T01:42:12;12.10;99.90
5705;DHT22;2877;48.238;11.160;2022-09-09T01:44:39;12.10;99.90
5705;DHT22;2877;48.238;11.160;2022-09-09T01:47:05;12.10;99.90
5705;DHT22;2877;48.238;11.160;2022-09-09T01:49:32;12.20;99.90
5705;DHT22;2877;48.238;11.160;2022-09-09T01:51:58;12.10;99.90
5705;DHT22;2877;48.238;11.160;2022-09-09T01:54:28;12.10;99.90
5705;DHT22;2877;48.238;11.160;2022-09-09T02:02:30;12.20;99.90
5705;DHT22;2877;48.238;11.160;2022-09-09T02:07:41;12.20;99.90
5705;DHT22;2877;48.238;11.160;2022-09-09T02:10:36;12.20;99.90
5705;DHT22;2877;48.238;11.160;2022-09-09T02:13:10;12.30;99.90
5705;DHT22;2877;48.238;11.160;2022-09-09T02:16:06;12.30;99.90
5705;DHT22;2877;48.238;11.160;2022-09-09T02:18:32;12.30;99.90
5705;DHT22;2877;48.238;11.160;2022-09-09T02:21:00;12.40;99.90
5705;DHT22;2877;48.238;11.160;2022-09-09T02:23:28;12.50;99.90
5705;DHT22;2877;48.238;11.160;2022-09-09T02:25:56;12.50;99.90
5705;DHT22;2877;48.238;11.160;2022-09-09T02:28:25;12.50;99.90
5705;DHT22;2877;48.238;11.160;2022-09-09T02:30:53;12.50;99.90
5705;DHT22;2877;48.238;11.160;2022-09-09T02:33:25;12.50;99.90
5705;DHT22;2877;48.238;11.160;2022-09-09T02:35:52;12.50;99.90
5705;DHT22;2877;48.238;11.160;2022-09-09T02:38:25;12.50;99.90
5705;DHT22;2877;48.238;11.160;2022-09-09T02:40:51;12.60;99.90
5705;DHT22;2877;48.238;11.160;2022-09-09T02:43:17;12.70;99.90
5705;DHT22;2877;48.238;11.160;2022-09-09T02:56:49;12.90;99.90
5705;DHT22;2877;48.238;11.160;2022-09-09T02:59:16;13.00;99.90
5705;DHT22;2877;48.238;11.160;2022-09-09T03:01:43;13.00;99.90
5705;DHT22;2877;48.238;11.160;2022-09-09T03:04:09;13.20;99.90
5705;DHT22;2877;48.238;11.160;2022-09-09T03:06:35;13.30;99.90
5705;DHT22;2877;48.238;11.160;2022-09-09T03:09:01;13.40;99.90
5705;DHT22;2877;48.238;11.160;2022-09-09T03:11:28;13.50;99.90
5705;DHT22;2877;48.238;11.160;2022-09-09T03:13:54;13.60;99.90
5705;DHT22;2877;48.238;11.160;2022-09-09T03:16:24;13.60;99.90
5705;DHT22;2877;48.238;11.160;2022-09-09T03:18:50;13.70;99.90
5705;DHT22;2877;48.238;11.160;2022-09-09T03:21:15;13.70;99.90
5705;DHT22;2877;48.238;11.160;2022-09-09T03:23:41;13.80;99.90
5705;DHT22;2877;48.238;11.160;2022-09-09T03:26:07;13.80;99.90
5705;DHT22;2877;48.238;11.160;2022-09-09T03:28:33;13.80;99.90
5705;DHT22;2877;48.238;11.160;2022-09-09T03:31:04;13.70;99.90
5705;DHT22;2877;48.238;11.160;2022-09-09T03:33:30;13.60;99.90
5705;DHT22;2877;48.238;11.160;2022-09-09T03:35:56;13.50;99.90
5705;DHT22;2877;48.238;11.160;2022-09-09T03:38:25;13.40;99.90
5705;DHT22;2877;48.238;11.160;2022-09-09T03:40:52;13.30;99.90
5705;DHT22;2877;48.238;11.160;2022-09-09T03:43:25;13.30;99.90
5705;DHT22;2877;48.238;11.160;2022-09-09T03:45:51;13.20;99.90
5705;DHT22;2877;48.238;11.160;2022-09-09T03:48:17;13.20;99.90
5705;DHT22;2877;48.238;11.160;2022-09-09T03:50:50;13.10;99.90
5705;DHT22;2877;48.238;11.160;2022-09-09T03:53:17;13.10;99.90
5705;DHT22;2877;48.238;11.160;2022-09-09T03:55:52;13.10;99.90
5705;DHT22;2877;48.238;11.160;2022-09-09T03:58:20;13.00;99.90
5705;DHT22;2877;48.238;11.160;2022-09-09T04:00:58;13.00;99.90
5705;DHT22;2877;48.238;11.160;2022-09-09T04:03:24;12.90;99.90
5705;DHT22;2877;48.238;11.160;2022-09-09T04:05:53;12.90;99.90
5705;DHT22;2877;48.238;11.160;2022-09-09T04:08:20;12.80;99.90
5705;DHT22;2877;48.238;11.160;2022-09-09T04:10:48;12.80;99.90
5705;DHT22;2877;48.238;11.160;2022-09-09T04:13:14;12.80;99.90
5705;DHT22;2877;48.238;11.160;2022-09-09T04:15:42;12.70;99.90
5705;DHT22;2877;48.238;11.160;2022-09-09T04:18:08;12.70;99.90
5705;DHT22;2877;48.238;11.160;2022-09-09T04:20:34;12.70;99.90
5705;DHT22;2877;48.238;11.160;2022-09-09T04:23:00;12.80;99.90
5705;DHT22;2877;48.238;11.160;2022-09-09T04:25:26;12.80;99.90
5705;DHT22;2877;48.238;11.160;2022-09-09T04:27:56;12.90;99.90
5705;DHT22;2877;48.238;11.160;2022-09-09T04:30:23;13.00;99.90
5705;DHT22;2877;48.238;11.160;2022-09-09T04:32:48;13.10;99.90
5705;DHT22;2877;48.238;11.160;2022-09-09T04:35:14;13.20;99.90
5705;DHT22;2877;48.238;11.160;2022-09-09T04:37:40;13.30;99.90
5705;DHT22;2877;48.238;11.160;2022-09-09T04:40:07;13.40;99.90
5705;DHT22;2877;48.238;11.160;2022-09-09T04:42:38;13.50;99.90
5705;DHT22;2877;48.238;11.160;2022-09-09T04:45:05;13.60;99.90
5705;DHT22;2877;48.238;11.160;2022-09-09T04:47:31;13.60;99.90
5705;DHT22;2877;48.238;11.160;2022-09-09T04:49:57;13.70;99.90
5705;DHT22;2877;48.238;11.160;2022-09-09T04:52:22;13.70;99.90
5705;DHT22;2877;48.238;11.160;2022-09-09T04:54:48;13.70;99.90
5705;DHT22;2877;48.238;11.160;2022-09-09T04:57:14;13.80;99.90
5705;DHT22;2877;48.238;11.160;2022-09-09T04:59:39;13.80;99.90
5705;DHT22;2877;48.238;11.160;2022-09-09T05:02:05;13.90;99.90
5705;DHT22;2877;48.238;11.160;2022-09-09T05:04:31;13.90;99.90
5705;DHT22;2877;48.238;11.160;2022-09-09T05:06:58;13.90;99.90
5705;DHT22;2877;48.238;11.160;2022-09-09T05:09:24;13.90;99.90
5705;DHT22;2877;48.238;11.160;2022-09-09T05:11:49;13.90;99.90
5705;DHT22;2877;48.238;11.160;2022-09-09T05:14:15;13.90;99.90
5705;DHT22;2877;48.238;11.160;2022-09-09T05:16:41;13.90;99.90
5705;DHT22;2877;48.238;11.160;2022-09-09T05:19:07;14.00;99.90
5705;DHT22;2877;48.238;11.160;2022-09-09T05:21:33;14.00;99.90
5705;DHT22;2877;48.238;11.160;2022-09-09T05:23:59;14.10;99.90
5705;DHT22;2877;48.238;11.160;2022-09-09T05:26:26;14.10;99.90
5705;DHT22;2877;48.238;11.160;2022-09-09T05:28:51;14.20;99.90
5705;DHT22;2877;48.238;11.160;2022-09-09T05:31:18;14.20;99.90
5705;DHT22;2877;48.238;11.160;2022-09-09T05:33:45;14.30;99.90
5705;DHT22;2877;48.238;11.160;2022-09-09T05:36:14;14.30;99.90
5705;DHT22;2877;48.238;11.160;2022-09-09T05:38:40;14.40;99.90
5705;DHT22;2877;48.238;11.160;2022-09-09T05:41:06;14.50;99.90
5705;DHT22;2877;48.238;11.160;2022-09-09T05:43:33;14.50;99.90
5705;DHT22;2877;48.238;11.160;2022-09-09T05:48:30;14.60;99.90
5705;DHT22;2877;48.238;11.160;2022-09-09T05:50:56;14.70;99.90
5705;DHT22;2877;48.238;11.160;2022-09-09T05:53:22;14.70;99.90
5705;DHT22;2877;48.238;11.160;2022-09-09T05:55:47;14.70;99.90
5705;DHT22;2877;48.238;11.160;2022-09-09T05:58:13;14.80;99.90
5705;DHT22;2877;48.238;11.160;2022-09-09T06:00:40;14.80;99.90
5705;DHT22;2877;48.238;11.160;2022-09-09T06:03:06;14.80;99.90
5705;DHT22;2877;48.238;11.160;2022-09-09T06:05:31;14.80;99.90
5705;DHT22;2877;48.238;11.160;2022-09-09T06:07:58;14.90;99.90
5705;DHT22;2877;48.238;11.160;2022-09-09T06:10:24;15.00;99.90
5705;DHT22;2877;48.238;11.160;2022-09-09T06:12:52;15.00;99.90
5705;DHT22;2877;48.238;11.160;2022-09-09T06:15:18;15.00;99.90
5705;DHT22;2877;48.238;11.160;2022-09-09T06:17:43;15.00;99.90
5705;DHT22;2877;48.238;11.160;2022-09-09T06:20:10;15.10;99.90
5705;DHT22;2877;48.238;11.160;2022-09-09T06:22:39;15.10;99.90
5705;DHT22;2877;48.238;11.160;2022-09-09T06:25:07;15.10;99.90
5705;DHT22;2877;48.238;11.160;2022-09-09T06:27:33;15.10;99.90
5705;DHT22;2877;48.238;11.160;2022-09-09T06:29:58;15.10;99.90
5705;DHT22;2877;48.238;11.160;2022-09-09T06:32:24;14.90;99.90
5705;DHT22;2877;48.238;11.160;2022-09-09T06:34:50;14.80;99.90
5705;DHT22;2877;48.238;11.160;2022-09-09T06:37:15;14.80;99.90
5705;DHT22;2877;48.238;11.160;2022-09-09T06:39:41;14.80;99.90
5705;DHT22;2877;48.238;11.160;2022-09-09T06:42:07;14.90;99.90
5705;DHT22;2877;48.238;11.160;2022-09-09T06:44:34;14.90;99.90
5705;DHT22;2877;48.238;11.160;2022-09-09T06:46:59;14.90;99.90
5705;DHT22;2877;48.238;11.160;2022-09-09T06:49:25;14.90;99.90
5705;DHT22;2877;48.238;11.160;2022-09-09T06:51:50;14.90;99.90
5705;DHT22;2877;48.238;11.160;2022-09-09T06:54:17;14.90;99.90
5705;DHT22;2877;48.238;11.160;2022-09-09T06:56:43;15.00;99.90
5705;DHT22;2877;48.238;11.160;2022-09-09T06:59:11;15.00;99.90
5705;DHT22;2877;48.238;11.160;2022-09-09T07:01:42;15.00;99.90
5705;DHT22;2877;48.238;11.160;2022-09-09T07:04:16;14.90;99.90
5705;DHT22;2877;48.238;11.160;2022-09-09T07:06:46;14.90;99.90
5705;DHT22;2877;48.238;11.160;2022-09-09T07:09:13;14.80;99.90
5705;DHT22;2877;48.238;11.160;2022-09-09T07:11:50;14.90;99.90
5705;DHT22;2877;48.238;11.160;2022-09-09T07:14:18;15.10;99.90
5705;DHT22;2877;48.238;11.160;2022-09-09T07:16:44;15.20;99.90
5705;DHT22;2877;48.238;11.160;2022-09-09T07:19:12;15.20;99.90
5705;DHT22;2877;48.238;11.160;2022-09-09T07:21:38;15.20;99.90
5705;DHT22;2877;48.238;11.160;2022-09-09T07:24:05;15.30;99.90
5705;DHT22;2877;48.238;11.160;2022-09-09T07:26:33;15.30;99.90
5705;DHT22;2877;48.238;11.160;2022-09-09T07:28:59;15.30;99.90
5705;DHT22;2877;48.238;11.160;2022-09-09T07:31:30;15.30;99.90
5705;DHT22;2877;48.238;11.160;2022-09-09T07:33:56;15.40;99.90
5705;DHT22;2877;48.238;11.160;2022-09-09T07:36:28;15.40;99.90
5705;DHT22;2877;48.238;11.160;2022-09-09T07:38:59;15.30;99.90
5705;DHT22;2877;48.238;11.160;2022-09-09T07:41:45;15.20;99.90
5705;DHT22;2877;48.238;11.160;2022-09-09T07:44:16;15.20;99.90
5705;DHT22;2877;48.238;11.160;2022-09-09T07:46:42;15.20;99.90
5705;DHT22;2877;48.238;11.160;2022-09-09T07:49:09;15.10;99.90
5705;DHT22;2877;48.238;11.160;2022-09-09T07:51:39;15.20;99.90
5705;DHT22;2877;48.238;11.160;2022-09-09T07:54:07;15.30;99.90
5705;DHT22;2877;48.238;11.160;2022-09-09T07:56:34;15.50;99.90
5705;DHT22;2877;48.238;11.160;2022-09-09T07:59:01;15.60;99.90
5705;DHT22;2877;48.238;11.160;2022-09-09T08:01:35;15.70;99.90
5705;DHT22;2877;48.238;11.160;2022-09-09T08:04:06;15.90;99.90
5705;DHT22;2877;48.238;11.160;2022-09-09T08:06:35;16.10;99.90
5705;DHT22;2877;48.238;11.160;2022-09-09T08:09:01;16.20;99.90
5705;DHT22;2877;48.238;11.160;2022-09-09T08:11:29;16.40;99.90
5705;DHT22;2877;48.238;11.160;2022-09-09T08:13:55;16.50;99.90
5705;DHT22;2877;48.238;11.160;2022-09-09T08:16:23;16.70;99.90
5705;DHT22;2877;48.238;11.160;2022-09-09T08:18:50;16.90;99.90
5705;DHT22;2877;48.238;11.160;2022-09-09T08:21:19;17.00;99.90
5705;DHT22;2877;48.238;11.160;2022-09-09T08:23:46;17.20;99.90
5705;DHT22;2877;48.238;11.160;2022-09-09T08:28:39;17.70;99.90
5705;DHT22;2877;48.238;11.160;2022-09-09T08:31:17;17.90;99.90
5705;DHT22;2877;48.238;11.160;2022-09-09T08:33:43;18.00;99.90
5705;DHT22;2877;48.238;11.160;2022-09-09T08:36:13;18.10;99.90
5705;DHT22;2877;48.238;11.160;2022-09-09T08:38:41;18.30;99.90
5705;DHT22;2877;48.238;11.160;2022-09-09T08:43:43;18.70;99.90
5705;DHT22;2877;48.238;11.160;2022-09-09T08:46:28;18.90;99.90
5705;DHT22;2877;48.238;11.160;2022-09-09T08:52:12;19.10;99.90
5705;DHT22;2877;48.238;11.160;2022-09-09T08:54:38;19.10;99.90
5705;DHT22;2877;48.238;11.160;2022-09-09T08:57:14;18.80;99.90
5705;DHT22;2877;48.238;11.160;2022-09-09T08:59:43;18.70;99.90
5705;DHT22;2877;48.238;11.160;2022-09-09T09:02:27;18.80;99.90
5705;DHT22;2877;48.238;11.160;2022-09-09T09:05:11;18.80;99.90
5705;DHT22;2877;48.238;11.160;2022-09-09T09:10:46;18.50;99.90
5705;DHT22;2877;48.238;11.160;2022-09-09T09:13:19;18.40;99.90
5705;DHT22;2877;48.238;11.160;2022-09-09T09:15:51;18.30;99.90
5705;DHT22;2877;48.238;11.160;2022-09-09T09:18:17;18.20;99.90
5705;DHT22;2877;48.238;11.160;2022-09-09T09:23:23;18.20;99.90
5705;DHT22;2877;48.238;11.160;2022-09-09T09:25:50;18.00;99.90
5705;DHT22;2877;48.238;11.160;2022-09-09T09:28:29;18.00;99.90
5705;DHT22;2877;48.238;11.160;2022-09-09T09:31:09;18.20;99.90
5705;DHT22;2877;48.238;11.160;2022-09-09T09:33:50;18.20;99.90
5705;DHT22;2877;48.238;11.160;2022-09-09T09:36:19;18.40;99.90
5705;DHT22;2877;48.238;11.160;2022-09-09T09:38:58;18.50;99.90
5705;DHT22;2877;48.238;11.160;2022-09-09T09:41:42;18.70;99.90
5705;DHT22;2877;48.238;11.160;2022-09-09T09:44:27;18.80;99.90
5705;DHT22;2877;48.238;11.160;2022-09-09T09:47:13;19.10;99.90
5705;DHT22;2877;48.238;11.160;2022-09-09T09:49:50;19.30;99.90
5705;DHT22;2877;48.238;11.160;2022-09-09T09:52:17;19.50;99.90
5705;DHT22;2877;48.238;11.160;2022-09-09T09:54:46;19.70;99.90
5705;DHT22;2877;48.238;11.160;2022-09-09T09:57:13;19.70;99.90
5705;DHT22;2877;48.238;11.160;2022-09-09T09:59:40;19.70;99.90
5705;DHT22;2877;48.238;11.160;2022-09-09T10:02:24;19.60;99.90
5705;DHT22;2877;48.238;11.160;2022-09-09T10:07:39;19.50;99.90
5705;DHT22;2877;48.238;11.160;2022-09-09T10:10:08;19.40;99.90
5705;DHT22;2877;48.238;11.160;2022-09-09T10:12:50;19.50;99.90
5705;DHT22;2877;48.238;11.160;2022-09-09T10:23:33;19.80;99.90
5705;DHT22;2877;48.238;11.160;2022-09-09T10:26:16;19.60;99.90
5705;DHT22;2877;48.238;11.160;2022-09-09T10:29:14;19.60;99.90
5705;DHT22;2877;48.238;11.160;2022-09-09T10:32:00;19.70;99.90
5705;DHT22;2877;48.238;11.160;2022-09-09T10:40:30;20.20;99.90
5705;DHT22;2877;48.238;11.160;2022-09-09T10:51:29;19.80;99.90
5705;DHT22;2877;48.238;11.160;2022-09-09T10:56:44;19.80;99.90
5705;DHT22;2877;48.238;11.160;2022-09-09T10:59:18;20.00;99.90
5705;DHT22;2877;48.238;11.160;2022-09-09T11:01:58;19.90;99.90
5705;DHT22;2877;48.238;11.160;2022-09-09T11:04:48;20.00;99.90
5705;DHT22;2877;48.238;11.160;2022-09-09T11:07:40;20.10;99.90
5705;DHT22;2877;48.238;11.160;2022-09-09T11:13:17;20.40;99.90
5705;DHT22;2877;48.238;11.160;2022-09-09T11:15:46;20.40;99.90
5705;DHT22;2877;48.238;11.160;2022-09-09T11:18:20;20.40;99.90
5705;DHT22;2877;48.238;11.160;2022-09-09T11:20:50;20.20;99.90
5705;DHT22;2877;48.238;11.160;2022-09-09T11:23:29;20.20;99.90
5705;DHT22;2877;48.238;11.160;2022-09-09T11:26:01;20.40;99.90
5705;DHT22;2877;48.238;11.160;2022-09-09T11:31:44;20.60;99.90
5705;DHT22;2877;48.238;11.160;2022-09-09T11:37:04;20.20;99.90
5705;DHT22;2877;48.238;11.160;2022-09-09T11:42:46;20.30;99.90
5705;DHT22;2877;48.238;11.160;2022-09-09T11:45:26;20.50;99.90
5705;DHT22;2877;48.238;11.160;2022-09-09T11:47:58;20.80;99.90
5705;DHT22;2877;48.238;11.160;2022-09-09T11:52:50;20.90;99.90
5705;DHT22;2877;48.238;11.160;2022-09-09T11:55:31;20.70;99.90
5705;DHT22;2877;48.238;11.160;2022-09-09T11:58:06;20.20;99.90
5705;DHT22;2877;48.238;11.160;2022-09-09T12:00:44;20.10;99.90
5705;DHT22;2877;48.238;11.160;2022-09-09T12:06:07;20.50;99.90
5705;DHT22;2877;48.238;11.160;2022-09-09T12:08:35;20.70;99.90
5705;DHT22;2877;48.238;11.160;2022-09-09T12:11:02;20.80;99.90
5705;DHT22;2877;48.238;11.160;2022-09-09T12:13:29;20.90;99.90
5705;DHT22;2877;48.238;11.160;2022-09-09T12:15:59;21.00;99.90
5705;DHT22;2877;48.238;11.160;2022-09-09T12:18:35;21.20;99.90
5705;DHT22;2877;48.238;11.160;2022-09-09T12:21:34;21.30;99.90
5705;DHT22;2877;48.238;11.160;2022-09-09T12:24:09;21.50;99.90
5705;DHT22;2877;48.238;11.160;2022-09-09T12:26:47;21.40;99.90
5705;DHT22;2877;48.238;11.160;2022-09-09T12:32:28;21.10;99.90
5705;DHT22;2877;48.238;11.160;2022-09-09T12:34:59;21.10;99.90
5705;DHT22;2877;48.238;11.160;2022-09-09T12:37:32;21.10;99.90
5705;DHT22;2877;48.238;11.160;2022-09-09T12:40:01;21.00;99.90
5705;DHT22;2877;48.238;11.160;2022-09-09T12:42:28;21.10;99.90
5705;DHT22;2877;48.238;11.160;2022-09-09T12:44:56;21.20;99.90
5705;DHT22;2877;48.238;11.160;2022-09-09T12:47:34;21.40;99.90
5705;DHT22;2877;48.238;11.160;2022-09-09T12:50:02;21.70;99.90
5705;DHT22;2877;48.238;11.160;2022-09-09T12:52:34;21.60;99.90
5705;DHT22;2877;48.238;11.160;2022-09-09T12:55:02;21.70;99.90
5705;DHT22;2877;48.238;11.160;2022-09-09T12:57:35;21.90;99.90
5705;DHT22;2877;48.238;11.160;2022-09-09T13:00:08;21.70;99.90
5705;DHT22;2877;48.238;11.160;2022-09-09T13:02:35;21.70;99.90
5705;DHT22;2877;48.238;11.160;2022-09-09T13:05:15;21.70;99.90
5705;DHT22;2877;48.238;11.160;2022-09-09T13:07:42;21.60;99.90
5705;DHT22;2877;48.238;11.160;2022-09-09T13:10:11;21.30;99.90
5705;DHT22;2877;48.238;11.160;2022-09-09T13:12:38;21.30;99.90
5705;DHT22;2877;48.238;11.160;2022-09-09T13:17:36;21.40;99.90
5705;DHT22;2877;48.238;11.160;2022-09-09T13:20:02;21.60;99.90
5705;DHT22;2877;48.238;11.160;2022-09-09T13:22:36;21.80;99.90
5705;DHT22;2877;48.238;11.160;2022-09-09T13:27:38;23.70;99.90
5705;DHT22;2877;48.238;11.160;2022-09-09T13:30:39;24.50;99.50
5705;DHT22;2877;48.238;11.160;2022-09-09T13:35:54;25.40;94.20
5705;DHT22;2877;48.238;11.160;2022-09-09T13:38:21;25.60;94.60
5705;DHT22;2877;48.238;11.160;2022-09-09T13:41:02;25.50;92.70
5705;DHT22;2877;48.238;11.160;2022-09-09T13:43:34;25.50;93.50
5705;DHT22;2877;48.238;11.160;2022-09-09T13:46:04;25.70;91.90
5705;DHT22;2877;48.238;11.160;2022-09-09T13:48:30;26.30;91.10
5705;DHT22;2877;48.238;11.160;2022-09-09T13:51:02;27.20;90.20
5705;DHT22;2877;48.238;11.160;2022-09-09T13:53:29;27.40;82.60
5705;DHT22;2877;48.238;11.160;2022-09-09T13:55:55;27.30;82.20
5705;DHT22;2877;48.238;11.160;2022-09-09T13:58:22;27.10;82.30
5705;DHT22;2877;48.238;11.160;2022-09-09T14:00:48;27.00;81.70
5705;DHT22;2877;48.238;11.160;2022-09-09T14:03:15;27.30;82.40
5705;DHT22;2877;48.238;11.160;2022-09-09T14:05:41;27.80;82.90
5705;DHT22;2877;48.238;11.160;2022-09-09T14:08:15;28.00;79.20
5705;DHT22;2877;48.238;11.160;2022-09-09T14:10:41;27.20;80.00
5705;DHT22;2877;48.238;11.160;2022-09-09T14:13:06;26.10;83.60
5705;DHT22;2877;48.238;11.160;2022-09-09T14:15:33;25.30;87.90
5705;DHT22;2877;48.238;11.160;2022-09-09T14:17:59;24.60;88.70
5705;DHT22;2877;48.238;11.160;2022-09-09T14:20:24;23.90;90.10
5705;DHT22;2877;48.238;11.160;2022-09-09T14:22:50;23.60;90.70
5705;DHT22;2877;48.238;11.160;2022-09-09T14:25:15;23.60;91.70
5705;DHT22;2877;48.238;11.160;2022-09-09T14:27:41;23.40;91.30
5705;DHT22;2877;48.238;11.160;2022-09-09T14:30:08;23.30;91.80
5705;DHT22;2877;48.238;11.160;2022-09-09T14:32:34;23.10;91.80
5705;DHT22;2877;48.238;11.160;2022-09-09T14:34:59;22.90;92.10
5705;DHT22;2877;48.238;11.160;2022-09-09T14:37:25;22.80;92.20
5705;DHT22;2877;48.238;11.160;2022-09-09T14:39:52;22.60;93.40
5705;DHT22;2877;48.238;11.160;2022-09-09T14:42:19;22.50;93.50
5705;DHT22;2877;48.238;11.160;2022-09-09T14:44:44;22.50;94.10
5705;DHT22;2877;48.238;11.160;2022-09-09T14:47:10;22.60;94.90
5705;DHT22;2877;48.238;11.160;2022-09-09T14:49:36;22.90;94.40
5705;DHT22;2877;48.238;11.160;2022-09-09T14:52:03;23.00;90.20
5705;DHT22;2877;48.238;11.160;2022-09-09T14:54:29;22.80;89.40
5705;DHT22;2877;48.238;11.160;2022-09-09T14:56:55;22.30;90.40
5705;DHT22;2877;48.238;11.160;2022-09-09T14:59:22;22.00;90.00
5705;DHT22;2877;48.238;11.160;2022-09-09T15:01:47;21.90;90.60
5705;DHT22;2877;48.238;11.160;2022-09-09T15:04:13;21.80;91.40
5705;DHT22;2877;48.238;11.160;2022-09-09T15:06:42;21.80;91.10
5705;DHT22;2877;48.238;11.160;2022-09-09T15:09:10;21.90;91.20
5705;DHT22;2877;48.238;11.160;2022-09-09T15:11:37;21.80;91.10
5705;DHT22;2877;48.238;11.160;2022-09-09T15:14:07;21.60;91.90
5705;DHT22;2877;48.238;11.160;2022-09-09T15:16:33;21.80;93.20
5705;DHT22;2877;48.238;11.160;2022-09-09T15:19:00;22.20;94.00
5705;DHT22;2877;48.238;11.160;2022-09-09T15:21:29;22.40;94.20
5705;DHT22;2877;48.238;11.160;2022-09-09T15:23:55;22.40;94.10
5705;DHT22;2877;48.238;11.160;2022-09-09T15:26:22;22.30;94.10
5705;DHT22;2877;48.238;11.160;2022-09-09T15:28:47;22.20;94.30
5705;DHT22;2877;48.238;11.160;2022-09-09T15:31:21;22.10;94.10
5705;DHT22;2877;48.238;11.160;2022-09-09T15:33:51;21.90;94.30
5705;DHT22;2877;48.238;11.160;2022-09-09T15:36:22;21.60;94.60
5705;DHT22;2877;48.238;11.160;2022-09-09T15:38:48;21.30;95.10
5705;DHT22;2877;48.238;11.160;2022-09-09T15:41:16;21.30;95.10
5705;DHT22;2877;48.238;11.160;2022-09-09T15:43:46;21.30;94.70
5705;DHT22;2877;48.238;11.160;2022-09-09T15:46:25;21.30;95.20
5705;DHT22;2877;48.238;11.160;2022-09-09T15:48:56;21.40;94.60
5705;DHT22;2877;48.238;11.160;2022-09-09T15:51:23;21.50;94.20
5705;DHT22;2877;48.238;11.160;2022-09-09T15:53:53;21.60;94.10
5705;DHT22;2877;48.238;11.160;2022-09-09T15:56:19;21.40;93.80
5705;DHT22;2877;48.238;11.160;2022-09-09T15:58:44;21.30;94.00
5705;DHT22;2877;48.238;11.160;2022-09-09T16:01:11;21.00;94.00
5705;DHT22;2877;48.238;11.160;2022-09-09T16:03:40;20.70;93.80
5705;DHT22;2877;48.238;11.160;2022-09-09T16:06:13;20.40;94.60
5705;DHT22;2877;48.238;11.160;2022-09-09T16:08:41;20.10;94.90
5705;DHT22;2877;48.238;11.160;2022-09-09T16:11:14;19.90;95.40
5705;DHT22;2877;48.238;11.160;2022-09-09T16:13:41;19.80;95.80
5705;DHT22;2877;48.238;11.160;2022-09-09T16:16:08;19.90;96.30
5705;DHT22;2877;48.238;11.160;2022-09-09T16:18:39;20.10;95.80
5705;DHT22;2877;48.238;11.160;2022-09-09T16:21:05;20.30;95.70
5705;DHT22;2877;48.238;11.160;2022-09-09T16:23:34;20.30;95.90
5705;DHT22;2877;48.238;11.160;2022-09-09T16:26:00;20.30;96.20
5705;DHT22;2877;48.238;11.160;2022-09-09T16:28:26;20.70;96.00
5705;DHT22;2877;48.238;11.160;2022-09-09T16:30:52;21.10;95.10
5705;DHT22;2877;48.238;11.160;2022-09-09T16:33:18;21.00;94.90
5705;DHT22;2877;48.238;11.160;2022-09-09T16:35:44;21.90;94.70
5705;DHT22;2877;48.238;11.160;2022-09-09T16:38:10;23.30;93.10
5705;DHT22;2877;48.238;11.160;2022-09-09T16:40:37;23.40;91.80
5705;DHT22;2877;48.238;11.160;2022-09-09T16:43:04;22.80;92.20
5705;DHT22;2877;48.238;11.160;2022-09-09T16:45:31;22.00;93.20
5705;DHT22;2877;48.238;11.160;2022-09-09T16:47:57;21.40;93.90
5705;DHT22;2877;48.238;11.160;2022-09-09T16:50:23;21.90;93.90
5705;DHT22;2877;48.238;11.160;2022-09-09T16:52:48;23.10;92.70
5705;DHT22;2877;48.238;11.160;2022-09-09T16:55:14;24.30;91.40
5705;DHT22;2877;48.238;11.160;2022-09-09T16:57:39;25.40;90.00
5705;DHT22;2877;48.238;11.160;2022-09-09T17:00:07;26.00;87.00
5705;DHT22;2877;48.238;11.160;2022-09-09T17:02:33;25.10;86.40
5705;DHT22;2877;48.238;11.160;2022-09-09T17:04:58;23.80;89.20
5705;DHT22;2877;48.238;11.160;2022-09-09T17:07:24;22.80;91.10
5705;DHT22;2877;48.238;11.160;2022-09-09T17:09:50;21.80;92.00
5705;DHT22;2877;48.238;11.160;2022-09-09T17:12:16;21.00;93.30
5705;DHT22;2877;48.238;11.160;2022-09-09T17:14:42;20.40;94.50
5705;DHT22;2877;48.238;11.160;2022-09-09T17:17:08;19.90;95.30
5705;DHT22;2877;48.238;11.160;2022-09-09T17:19:34;19.50;96.20
5705;DHT22;2877;48.238;11.160;2022-09-09T17:21:59;19.10;97.30
5705;DHT22;2877;48.238;11.160;2022-09-09T17:24:26;18.80;98.10
5705;DHT22;2877;48.238;11.160;2022-09-09T17:26:54;18.50;98.80
5705;DHT22;2877;48.238;11.160;2022-09-09T17:29:19;18.30;99.70
5705;DHT22;2877;48.238;11.160;2022-09-09T17:31:45;18.00;99.90
5705;DHT22;2877;48.238;11.160;2022-09-09T17:34:10;17.80;99.90
5705;DHT22;2877;48.238;11.160;2022-09-09T17:36:37;17.70;99.90
5705;DHT22;2877;48.238;11.160;2022-09-09T17:39:04;17.50;99.90
5705;DHT22;2877;48.238;11.160;2022-09-09T17:41:36;17.40;99.90
5705;DHT22;2877;48.238;11.160;2022-09-09T17:44:02;17.20;99.90
5705;DHT22;2877;48.238;11.160;2022-09-09T17:46:34;17.10;99.90
5705;DHT22;2877;48.238;11.160;2022-09-09T17:49:03;16.90;99.90
5705;DHT22;2877;48.238;11.160;2022-09-09T17:51:31;16.80;99.90
5705;DHT22;2877;48.238;11.160;2022-09-09T17:54:03;16.70;99.90
5705;DHT22;2877;48.238;11.160;2022-09-09T17:56:31;16.60;99.90
5705;DHT22;2877;48.238;11.160;2022-09-09T17:58:58;16.50;99.90
5705;DHT22;2877;48.238;11.160;2022-09-09T18:01:26;16.40;99.90
5705;DHT22;2877;48.238;11.160;2022-09-09T18:03:55;16.30;99.90
5705;DHT22;2877;48.238;11.160;2022-09-09T18:06:28;16.20;99.90
5705;DHT22;2877;48.238;11.160;2022-09-09T18:09:15;16.10;99.90
5705;DHT22;2877;48.238;11.160;2022-09-09T18:11:43;16.00;99.90